Terminal Aerodrome Forecast
Issued by NWS

Home | Current Version | Previous Version | Text Only | Print | Product List | Glossary On
Versions: 1 2 3 4 5 6 7 8 9 10 11 12 13 14 15 16 17 18 19 20 21 22 23 24 25 26 27 28 29 30 31 32 33 34 35 36 37 38 39 40 41 42 43 44 45 46 47 48
000
FTUS44 KHGX 281737
TAFIAH
TAF
KIAH 281737Z 2818/2924 19006KT P6SM SCT040
     FM282100 15008KT P6SM VCSH SCT060
     FM290200 17005KT P6SM FEW060
     FM291100 VRB03KT P6SM FEW015
     FM292100 14005KT P6SM SCT070=

USA.gov is the U.S. government's official web portal to all federal, state and local government web resources and services.